sensor_id;sensor_type;location;lat;lon;timestamp;P1;durP1;ratioP1;P2;durP2;ratioP2
6840;SDS011;3458;53.678;14.080;2024-03-06T00:02:05;5.93;;;4.40;;
6840;SDS011;3458;53.678;14.080;2024-03-06T00:04:32;8.60;;;5.30;;
6840;SDS011;3458;53.678;14.080;2024-03-06T00:06:58;6.50;;;5.10;;
6840;SDS011;3458;53.678;14.080;2024-03-06T00:09:24;9.63;;;5.67;;
6840;SDS011;3458;53.678;14.080;2024-03-06T00:11:52;8.77;;;5.43;;
6840;SDS011;3458;53.678;14.080;2024-03-06T00:14:18;7.20;;;5.17;;
6840;SDS011;3458;53.678;14.080;2024-03-06T00:16:44;10.70;;;5.20;;
6840;SDS011;3458;53.678;14.080;2024-03-06T00:19:10;12.73;;;4.70;;
6840;SDS011;3458;53.678;14.080;2024-03-06T00:21:35;13.10;;;5.37;;
6840;SDS011;3458;53.678;14.080;2024-03-06T00:24:01;10.03;;;5.83;;
6840;SDS011;3458;53.678;14.080;2024-03-06T00:26:28;10.70;;;6.60;;
6840;SDS011;3458;53.678;14.080;2024-03-06T00:28:54;12.77;;;6.73;;
6840;SDS011;3458;53.678;14.080;2024-03-06T00:31:19;9.60;;;6.30;;
6840;SDS011;3458;53.678;14.080;2024-03-06T00:33:45;10.30;;;6.63;;
6840;SDS011;3458;53.678;14.080;2024-03-06T00:36:10;12.67;;;7.40;;
6840;SDS011;3458;53.678;14.080;2024-03-06T00:38:36;12.10;;;6.87;;
6840;SDS011;3458;53.678;14.080;2024-03-06T00:41:02;11.73;;;6.20;;
6840;SDS011;3458;53.678;14.080;2024-03-06T00:43:27;9.23;;;6.63;;
6840;SDS011;3458;53.678;14.080;2024-03-06T00:45:53;9.10;;;5.73;;
6840;SDS011;3458;53.678;14.080;2024-03-06T00:48:18;13.87;;;6.13;;
6840;SDS011;3458;53.678;14.080;2024-03-06T00:50:46;8.40;;;6.43;;
6840;SDS011;3458;53.678;14.080;2024-03-06T00:53:12;9.07;;;5.83;;
6840;SDS011;3458;53.678;14.080;2024-03-06T00:55:37;9.13;;;5.37;;
6840;SDS011;3458;53.678;14.080;2024-03-06T00:58:03;8.13;;;6.00;;
6840;SDS011;3458;53.678;14.080;2024-03-06T01:00:29;10.07;;;5.60;;
6840;SDS011;3458;53.678;14.080;2024-03-06T01:02:55;10.27;;;6.57;;
6840;SDS011;3458;53.678;14.080;2024-03-06T01:05:20;8.60;;;5.90;;
6840;SDS011;3458;53.678;14.080;2024-03-06T01:07:46;10.00;;;5.30;;
6840;SDS011;3458;53.678;14.080;2024-03-06T01:10:12;12.40;;;4.97;;
6840;SDS011;3458;53.678;14.080;2024-03-06T01:12:37;14.80;;;6.10;;
6840;SDS011;3458;53.678;14.080;2024-03-06T01:15:03;9.30;;;5.77;;
6840;SDS011;3458;53.678;14.080;2024-03-06T01:17:29;5.57;;;4.67;;
6840;SDS011;3458;53.678;14.080;2024-03-06T01:19:55;7.37;;;5.60;;
6840;SDS011;3458;53.678;14.080;2024-03-06T01:22:20;9.73;;;5.50;;
6840;SDS011;3458;53.678;14.080;2024-03-06T01:24:46;11.83;;;5.30;;
6840;SDS011;3458;53.678;14.080;2024-03-06T01:27:14;6.73;;;5.07;;
6840;SDS011;3458;53.678;14.080;2024-03-06T01:29:41;6.37;;;4.77;;
6840;SDS011;3458;53.678;14.080;2024-03-06T01:32:07;7.87;;;5.33;;
6840;SDS011;3458;53.678;14.080;2024-03-06T01:34:32;8.50;;;4.90;;
6840;SDS011;3458;53.678;14.080;2024-03-06T01:36:58;11.77;;;5.23;;
6840;SDS011;3458;53.678;14.080;2024-03-06T01:39:23;9.20;;;5.90;;
6840;SDS011;3458;53.678;14.080;2024-03-06T01:41:49;8.03;;;5.37;;
6840;SDS011;3458;53.678;14.080;2024-03-06T01:44:16;8.73;;;4.90;;
6840;SDS011;3458;53.678;14.080;2024-03-06T01:46:43;8.20;;;5.40;;
6840;SDS011;3458;53.678;14.080;2024-03-06T01:49:09;8.97;;;4.60;;
6840;SDS011;3458;53.678;14.080;2024-03-06T01:51:37;8.30;;;5.97;;
6840;SDS011;3458;53.678;14.080;2024-03-06T01:54:03;8.37;;;6.10;;
6840;SDS011;3458;53.678;14.080;2024-03-06T01:56:29;7.67;;;4.77;;
6840;SDS011;3458;53.678;14.080;2024-03-06T01:58:56;6.20;;;5.33;;
6840;SDS011;3458;53.678;14.080;2024-03-06T02:01:23;9.13;;;5.37;;
6840;SDS011;3458;53.678;14.080;2024-03-06T02:03:48;8.07;;;5.40;;
6840;SDS011;3458;53.678;14.080;2024-03-06T02:06:14;9.93;;;5.37;;
6840;SDS011;3458;53.678;14.080;2024-03-06T02:08:44;11.93;;;6.17;;
6840;SDS011;3458;53.678;14.080;2024-03-06T02:11:13;10.87;;;5.80;;
6840;SDS011;3458;53.678;14.080;2024-03-06T02:13:41;12.17;;;5.87;;
6840;SDS011;3458;53.678;14.080;2024-03-06T02:16:08;12.13;;;5.87;;
6840;SDS011;3458;53.678;14.080;2024-03-06T02:18:34;9.13;;;6.07;;
6840;SDS011;3458;53.678;14.080;2024-03-06T02:21:00;9.30;;;6.33;;
6840;SDS011;3458;53.678;14.080;2024-03-06T02:23:26;10.37;;;6.40;;
6840;SDS011;3458;53.678;14.080;2024-03-06T02:25:51;10.90;;;5.90;;
6840;SDS011;3458;53.678;14.080;2024-03-06T02:28:17;10.23;;;6.23;;
6840;SDS011;3458;53.678;14.080;2024-03-06T02:30:43;10.93;;;6.03;;
6840;SDS011;3458;53.678;14.080;2024-03-06T02:33:08;9.10;;;6.07;;
6840;SDS011;3458;53.678;14.080;2024-03-06T02:35:34;6.80;;;4.63;;
6840;SDS011;3458;53.678;14.080;2024-03-06T02:38:01;7.67;;;5.50;;
6840;SDS011;3458;53.678;14.080;2024-03-06T02:40:29;7.30;;;5.60;;
6840;SDS011;3458;53.678;14.080;2024-03-06T02:42:58;11.70;;;5.30;;
6840;SDS011;3458;53.678;14.080;2024-03-06T02:45:23;8.73;;;5.27;;
6840;SDS011;3458;53.678;14.080;2024-03-06T02:47:49;9.70;;;5.80;;
6840;SDS011;3458;53.678;14.080;2024-03-06T02:50:14;13.20;;;5.90;;
6840;SDS011;3458;53.678;14.080;2024-03-06T02:52:40;7.77;;;5.47;;
6840;SDS011;3458;53.678;14.080;2024-03-06T02:55:06;13.17;;;6.37;;
6840;SDS011;3458;53.678;14.080;2024-03-06T02:57:31;9.70;;;5.90;;
6840;SDS011;3458;53.678;14.080;2024-03-06T02:59:57;10.60;;;6.90;;
6840;SDS011;3458;53.678;14.080;2024-03-06T03:02:23;9.47;;;5.47;;
6840;SDS011;3458;53.678;14.080;2024-03-06T03:04:50;40.17;;;20.23;;
6840;SDS011;3458;53.678;14.080;2024-03-06T03:07:17;20.90;;;10.43;;
6840;SDS011;3458;53.678;14.080;2024-03-06T03:09:43;9.00;;;6.60;;
6840;SDS011;3458;53.678;14.080;2024-03-06T03:12:08;14.00;;;7.23;;
6840;SDS011;3458;53.678;14.080;2024-03-06T03:14:36;8.70;;;6.67;;
6840;SDS011;3458;53.678;14.080;2024-03-06T03:17:02;8.10;;;5.83;;
6840;SDS011;3458;53.678;14.080;2024-03-06T03:19:28;7.80;;;5.97;;
6840;SDS011;3458;53.678;14.080;2024-03-06T03:21:54;9.37;;;5.97;;
6840;SDS011;3458;53.678;14.080;2024-03-06T03:24:20;14.53;;;6.10;;
6840;SDS011;3458;53.678;14.080;2024-03-06T03:26:46;9.00;;;6.10;;
6840;SDS011;3458;53.678;14.080;2024-03-06T03:29:12;11.33;;;6.17;;
6840;SDS011;3458;53.678;14.080;2024-03-06T03:31:37;16.80;;;8.87;;
6840;SDS011;3458;53.678;14.080;2024-03-06T03:34:03;9.20;;;6.10;;
6840;SDS011;3458;53.678;14.080;2024-03-06T03:36:30;7.03;;;5.30;;
6840;SDS011;3458;53.678;14.080;2024-03-06T03:38:56;10.53;;;5.67;;
6840;SDS011;3458;53.678;14.080;2024-03-06T03:41:21;8.20;;;5.17;;
6840;SDS011;3458;53.678;14.080;2024-03-06T03:43:47;9.67;;;5.97;;
6840;SDS011;3458;53.678;14.080;2024-03-06T03:46:12;8.40;;;5.57;;
6840;SDS011;3458;53.678;14.080;2024-03-06T03:48:39;8.77;;;5.30;;
6840;SDS011;3458;53.678;14.080;2024-03-06T03:51:04;9.03;;;5.77;;
6840;SDS011;3458;53.678;14.080;2024-03-06T03:53:31;9.77;;;6.50;;
6840;SDS011;3458;53.678;14.080;2024-03-06T03:55:58;8.47;;;6.00;;
6840;SDS011;3458;53.678;14.080;2024-03-06T03:58:24;11.20;;;6.20;;
6840;SDS011;3458;53.678;14.080;2024-03-06T04:00:49;10.87;;;7.00;;
6840;SDS011;3458;53.678;14.080;2024-03-06T04:03:17;9.40;;;6.60;;
6840;SDS011;3458;53.678;14.080;2024-03-06T04:05:46;11.30;;;7.00;;
6840;SDS011;3458;53.678;14.080;2024-03-06T04:08:13;9.77;;;6.20;;
6840;SDS011;3458;53.678;14.080;2024-03-06T04:10:38;9.87;;;6.37;;
6840;SDS011;3458;53.678;14.080;2024-03-06T04:13:04;12.63;;;6.33;;
6840;SDS011;3458;53.678;14.080;2024-03-06T04:15:29;15.00;;;7.43;;
6840;SDS011;3458;53.678;14.080;2024-03-06T04:17:55;11.60;;;6.70;;
6840;SDS011;3458;53.678;14.080;2024-03-06T04:20:21;9.07;;;6.37;;
6840;SDS011;3458;53.678;14.080;2024-03-06T04:22:46;11.50;;;6.83;;
6840;SDS011;3458;53.678;14.080;2024-03-06T04:25:13;11.87;;;6.97;;
6840;SDS011;3458;53.678;14.080;2024-03-06T04:27:39;12.17;;;7.07;;
6840;SDS011;3458;53.678;14.080;2024-03-06T04:30:04;11.93;;;6.87;;
6840;SDS011;3458;53.678;14.080;2024-03-06T04:32:30;10.93;;;7.10;;
6840;SDS011;3458;53.678;14.080;2024-03-06T04:34:56;8.93;;;6.60;;
6840;SDS011;3458;53.678;14.080;2024-03-06T04:37:21;12.10;;;7.57;;
6840;SDS011;3458;53.678;14.080;2024-03-06T04:39:47;15.53;;;9.63;;
6840;SDS011;3458;53.678;14.080;2024-03-06T04:42:13;8.50;;;6.60;;
6840;SDS011;3458;53.678;14.080;2024-03-06T04:44:39;10.00;;;6.97;;
6840;SDS011;3458;53.678;14.080;2024-03-06T04:47:04;9.90;;;6.20;;
6840;SDS011;3458;53.678;14.080;2024-03-06T04:49:33;9.23;;;6.00;;
6840;SDS011;3458;53.678;14.080;2024-03-06T04:52:02;14.33;;;6.40;;
6840;SDS011;3458;53.678;14.080;2024-03-06T04:54:28;11.50;;;6.60;;
6840;SDS011;3458;53.678;14.080;2024-03-06T04:56:53;10.10;;;6.50;;
6840;SDS011;3458;53.678;14.080;2024-03-06T04:59:19;10.30;;;6.97;;
6840;SDS011;3458;53.678;14.080;2024-03-06T05:01:45;10.80;;;6.07;;
6840;SDS011;3458;53.678;14.080;2024-03-06T05:04:10;11.50;;;6.60;;
6840;SDS011;3458;53.678;14.080;2024-03-06T05:06:36;14.27;;;6.73;;
6840;SDS011;3458;53.678;14.080;2024-03-06T05:09:02;9.30;;;6.80;;
6840;SDS011;3458;53.678;14.080;2024-03-06T05:11:29;9.50;;;5.60;;
6840;SDS011;3458;53.678;14.080;2024-03-06T05:13:55;13.60;;;7.57;;
6840;SDS011;3458;53.678;14.080;2024-03-06T05:16:20;12.57;;;6.90;;
6840;SDS011;3458;53.678;14.080;2024-03-06T05:18:48;12.50;;;6.10;;
6840;SDS011;3458;53.678;14.080;2024-03-06T05:21:13;12.63;;;6.27;;
6840;SDS011;3458;53.678;14.080;2024-03-06T05:23:39;9.90;;;6.00;;
6840;SDS011;3458;53.678;14.080;2024-03-06T05:26:05;10.60;;;6.20;;
6840;SDS011;3458;53.678;14.080;2024-03-06T05:28:30;14.90;;;6.10;;
6840;SDS011;3458;53.678;14.080;2024-03-06T05:30:56;11.90;;;6.23;;
6840;SDS011;3458;53.678;14.080;2024-03-06T05:33:21;13.57;;;6.70;;
6840;SDS011;3458;53.678;14.080;2024-03-06T05:35:47;13.63;;;6.40;;
6840;SDS011;3458;53.678;14.080;2024-03-06T05:38:12;17.27;;;6.40;;
6840;SDS011;3458;53.678;14.080;2024-03-06T05:40:38;8.80;;;5.40;;
6840;SDS011;3458;53.678;14.080;2024-03-06T05:43:05;8.63;;;5.50;;
6840;SDS011;3458;53.678;14.080;2024-03-06T05:45:31;16.80;;;6.23;;
6840;SDS011;3458;53.678;14.080;2024-03-06T05:47:56;11.07;;;6.60;;
6840;SDS011;3458;53.678;14.080;2024-03-06T05:50:22;6.83;;;4.90;;
6840;SDS011;3458;53.678;14.080;2024-03-06T05:52:48;7.50;;;4.50;;
6840;SDS011;3458;53.678;14.080;2024-03-06T05:55:14;9.23;;;4.93;;
6840;SDS011;3458;53.678;14.080;2024-03-06T05:57:39;8.87;;;4.23;;
6840;SDS011;3458;53.678;14.080;2024-03-06T06:00:10;9.03;;;4.20;;
6840;SDS011;3458;53.678;14.080;2024-03-06T06:02:37;6.80;;;5.00;;
6840;SDS011;3458;53.678;14.080;2024-03-06T06:05:02;8.67;;;5.10;;
6840;SDS011;3458;53.678;14.080;2024-03-06T06:07:29;7.83;;;4.13;;
6840;SDS011;3458;53.678;14.080;2024-03-06T06:09:54;6.53;;;3.63;;
6840;SDS011;3458;53.678;14.080;2024-03-06T06:12:20;7.47;;;4.93;;
6840;SDS011;3458;53.678;14.080;2024-03-06T06:14:45;8.90;;;5.17;;
6840;SDS011;3458;53.678;14.080;2024-03-06T06:17:11;7.17;;;4.70;;
6840;SDS011;3458;53.678;14.080;2024-03-06T06:19:38;7.20;;;5.07;;
6840;SDS011;3458;53.678;14.080;2024-03-06T06:22:06;8.70;;;5.23;;
6840;SDS011;3458;53.678;14.080;2024-03-06T06:24:31;13.63;;;6.10;;
6840;SDS011;3458;53.678;14.080;2024-03-06T06:26:57;10.07;;;5.73;;
6840;SDS011;3458;53.678;14.080;2024-03-06T06:29:22;10.73;;;6.57;;
6840;SDS011;3458;53.678;14.080;2024-03-06T06:31:48;13.07;;;7.30;;
6840;SDS011;3458;53.678;14.080;2024-03-06T06:34:13;17.47;;;9.60;;
6840;SDS011;3458;53.678;14.080;2024-03-06T06:36:44;15.97;;;8.43;;
6840;SDS011;3458;53.678;14.080;2024-03-06T06:39:10;23.87;;;13.80;;
6840;SDS011;3458;53.678;14.080;2024-03-06T06:41:37;24.03;;;14.97;;
6840;SDS011;3458;53.678;14.080;2024-03-06T06:44:02;17.90;;;10.80;;
6840;SDS011;3458;53.678;14.080;2024-03-06T06:46:28;15.17;;;9.70;;
6840;SDS011;3458;53.678;14.080;2024-03-06T06:48:53;16.90;;;9.70;;
6840;SDS011;3458;53.678;14.080;2024-03-06T06:51:18;19.10;;;10.93;;
6840;SDS011;3458;53.678;14.080;2024-03-06T06:53:44;22.17;;;11.30;;
6840;SDS011;3458;53.678;14.080;2024-03-06T06:56:09;18.70;;;10.73;;
6840;SDS011;3458;53.678;14.080;2024-03-06T06:58:35;18.47;;;10.40;;
6840;SDS011;3458;53.678;14.080;2024-03-06T07:01:01;22.37;;;10.03;;
6840;SDS011;3458;53.678;14.080;2024-03-06T07:03:26;22.23;;;12.63;;
6840;SDS011;3458;53.678;14.080;2024-03-06T07:05:55;24.63;;;12.57;;
6840;SDS011;3458;53.678;14.080;2024-03-06T07:08:21;21.50;;;11.80;;
6840;SDS011;3458;53.678;14.080;2024-03-06T07:10:47;27.30;;;14.17;;
6840;SDS011;3458;53.678;14.080;2024-03-06T07:13:13;23.00;;;13.20;;
6840;SDS011;3458;53.678;14.080;2024-03-06T07:15:38;19.43;;;10.60;;
6840;SDS011;3458;53.678;14.080;2024-03-06T07:18:04;22.23;;;12.43;;
6840;SDS011;3458;53.678;14.080;2024-03-06T07:20:30;21.23;;;12.77;;
6840;SDS011;3458;53.678;14.080;2024-03-06T07:22:56;37.87;;;13.43;;
6840;SDS011;3458;53.678;14.080;2024-03-06T07:25:22;26.17;;;12.80;;
6840;SDS011;3458;53.678;14.080;2024-03-06T07:27:48;29.43;;;12.67;;
6840;SDS011;3458;53.678;14.080;2024-03-06T07:30:14;26.53;;;13.47;;
6840;SDS011;3458;53.678;14.080;2024-03-06T07:32:39;33.33;;;14.20;;
6840;SDS011;3458;53.678;14.080;2024-03-06T07:35:05;31.80;;;14.40;;
6840;SDS011;3458;53.678;14.080;2024-03-06T07:37:31;26.83;;;13.33;;
6840;SDS011;3458;53.678;14.080;2024-03-06T07:39:58;32.00;;;14.17;;
6840;SDS011;3458;53.678;14.080;2024-03-06T07:42:30;35.73;;;15.40;;
6840;SDS011;3458;53.678;14.080;2024-03-06T07:44:58;36.53;;;15.60;;
6840;SDS011;3458;53.678;14.080;2024-03-06T07:47:24;27.43;;;14.50;;
6840;SDS011;3458;53.678;14.080;2024-03-06T07:49:49;27.00;;;14.73;;
6840;SDS011;3458;53.678;14.080;2024-03-06T07:52:15;34.20;;;16.23;;
6840;SDS011;3458;53.678;14.080;2024-03-06T07:54:41;37.80;;;17.27;;
6840;SDS011;3458;53.678;14.080;2024-03-06T07:57:06;26.83;;;15.40;;
6840;SDS011;3458;53.678;14.080;2024-03-06T07:59:32;27.53;;;13.70;;
6840;SDS011;3458;53.678;14.080;2024-03-06T08:01:57;25.97;;;14.20;;
6840;SDS011;3458;53.678;14.080;2024-03-06T08:04:23;21.60;;;12.67;;
6840;SDS011;3458;53.678;14.080;2024-03-06T08:06:48;25.33;;;11.97;;
6840;SDS011;3458;53.678;14.080;2024-03-06T08:09:14;25.97;;;15.37;;
6840;SDS011;3458;53.678;14.080;2024-03-06T08:11:41;28.53;;;14.90;;
6840;SDS011;3458;53.678;14.080;2024-03-06T08:14:07;21.50;;;13.73;;
6840;SDS011;3458;53.678;14.080;2024-03-06T08:16:33;22.33;;;13.37;;
6840;SDS011;3458;53.678;14.080;2024-03-06T08:18:59;23.60;;;15.23;;
6840;SDS011;3458;53.678;14.080;2024-03-06T08:21:25;23.17;;;14.07;;
6840;SDS011;3458;53.678;14.080;2024-03-06T08:23:51;31.93;;;15.00;;
6840;SDS011;3458;53.678;14.080;2024-03-06T08:26:16;37.63;;;14.73;;
6840;SDS011;3458;53.678;14.080;2024-03-06T08:28:43;26.27;;;14.87;;
6840;SDS011;3458;53.678;14.080;2024-03-06T08:31:14;24.67;;;14.27;;
6840;SDS011;3458;53.678;14.080;2024-03-06T08:33:42;21.07;;;13.87;;
6840;SDS011;3458;53.678;14.080;2024-03-06T08:36:09;23.10;;;12.63;;
6840;SDS011;3458;53.678;14.080;2024-03-06T08:38:35;22.07;;;13.00;;
6840;SDS011;3458;53.678;14.080;2024-03-06T08:41:00;24.53;;;14.00;;
6840;SDS011;3458;53.678;14.080;2024-03-06T08:43:28;22.17;;;12.47;;
6840;SDS011;3458;53.678;14.080;2024-03-06T08:45:54;21.30;;;12.27;;
6840;SDS011;3458;53.678;14.080;2024-03-06T08:48:20;20.97;;;12.70;;
6840;SDS011;3458;53.678;14.080;2024-03-06T08:50:46;21.23;;;12.57;;
6840;SDS011;3458;53.678;14.080;2024-03-06T08:53:12;23.50;;;14.10;;
6840;SDS011;3458;53.678;14.080;2024-03-06T08:55:38;18.00;;;12.03;;
6840;SDS011;3458;53.678;14.080;2024-03-06T08:58:04;20.90;;;12.07;;
6840;SDS011;3458;53.678;14.080;2024-03-06T09:00:29;19.30;;;11.43;;
6840;SDS011;3458;53.678;14.080;2024-03-06T09:02:58;23.03;;;12.97;;
6840;SDS011;3458;53.678;14.080;2024-03-06T09:05:27;20.33;;;12.40;;
6840;SDS011;3458;53.678;14.080;2024-03-06T09:07:58;24.47;;;13.13;;
6840;SDS011;3458;53.678;14.080;2024-03-06T09:10:23;22.90;;;13.27;;
6840;SDS011;3458;53.678;14.080;2024-03-06T09:12:49;23.10;;;13.77;;
6840;SDS011;3458;53.678;14.080;2024-03-06T09:15:18;23.40;;;14.70;;
6840;SDS011;3458;53.678;14.080;2024-03-06T09:17:44;25.10;;;13.83;;
6840;SDS011;3458;53.678;14.080;2024-03-06T09:20:14;24.17;;;13.60;;
6840;SDS011;3458;53.678;14.080;2024-03-06T09:22:41;20.20;;;12.63;;
6840;SDS011;3458;53.678;14.080;2024-03-06T09:25:07;27.33;;;15.23;;
6840;SDS011;3458;53.678;14.080;2024-03-06T09:27:33;23.10;;;14.77;;
6840;SDS011;3458;53.678;14.080;2024-03-06T09:29:58;26.63;;;15.70;;
6840;SDS011;3458;53.678;14.080;2024-03-06T09:32:24;27.00;;;14.20;;
6840;SDS011;3458;53.678;14.080;2024-03-06T09:34:51;20.37;;;13.03;;
6840;SDS011;3458;53.678;14.080;2024-03-06T09:37:17;23.27;;;13.67;;
6840;SDS011;3458;53.678;14.080;2024-03-06T09:39:43;22.30;;;13.80;;
6840;SDS011;3458;53.678;14.080;2024-03-06T09:42:19;24.30;;;13.50;;
6840;SDS011;3458;53.678;14.080;2024-03-06T09:44:45;23.90;;;14.00;;
6840;SDS011;3458;53.678;14.080;2024-03-06T09:47:13;23.80;;;13.70;;
6840;SDS011;3458;53.678;14.080;2024-03-06T09:49:41;24.67;;;14.07;;
6840;SDS011;3458;53.678;14.080;2024-03-06T09:52:08;20.40;;;13.40;;
6840;SDS011;3458;53.678;14.080;2024-03-06T09:54:35;23.27;;;13.60;;
6840;SDS011;3458;53.678;14.080;2024-03-06T09:57:00;27.43;;;15.60;;
6840;SDS011;3458;53.678;14.080;2024-03-06T09:59:26;26.07;;;14.77;;
6840;SDS011;3458;53.678;14.080;2024-03-06T10:01:53;22.83;;;13.73;;
6840;SDS011;3458;53.678;14.080;2024-03-06T10:04:21;27.77;;;15.30;;
6840;SDS011;3458;53.678;14.080;2024-03-06T10:06:47;26.77;;;14.20;;
6840;SDS011;3458;53.678;14.080;2024-03-06T10:09:16;26.77;;;14.63;;
6840;SDS011;3458;53.678;14.080;2024-03-06T10:11:42;24.40;;;13.50;;
6840;SDS011;3458;53.678;14.080;2024-03-06T10:14:07;23.17;;;13.37;;
6840;SDS011;3458;53.678;14.080;2024-03-06T10:16:35;20.90;;;13.53;;
6840;SDS011;3458;53.678;14.080;2024-03-06T10:19:19;20.13;;;13.10;;
6840;SDS011;3458;53.678;14.080;2024-03-06T10:21:48;19.37;;;12.27;;
6840;SDS011;3458;53.678;14.080;2024-03-06T10:24:19;22.20;;;13.60;;
6840;SDS011;3458;53.678;14.080;2024-03-06T10:26:54;27.33;;;13.77;;
6840;SDS011;3458;53.678;14.080;2024-03-06T10:29:21;23.00;;;14.73;;
6840;SDS011;3458;53.678;14.080;2024-03-06T10:31:48;29.20;;;14.70;;
6840;SDS011;3458;53.678;14.080;2024-03-06T10:34:17;26.17;;;14.80;;
6840;SDS011;3458;53.678;14.080;2024-03-06T10:36:43;25.73;;;15.90;;
6840;SDS011;3458;53.678;14.080;2024-03-06T10:39:10;20.70;;;13.27;;
6840;SDS011;3458;53.678;14.080;2024-03-06T10:41:36;23.60;;;13.83;;
6840;SDS011;3458;53.678;14.080;2024-03-06T10:44:03;25.83;;;14.03;;
6840;SDS011;3458;53.678;14.080;2024-03-06T10:46:29;25.23;;;14.10;;
6840;SDS011;3458;53.678;14.080;2024-03-06T10:48:57;22.87;;;13.70;;
6840;SDS011;3458;53.678;14.080;2024-03-06T10:51:23;24.03;;;13.97;;
6840;SDS011;3458;53.678;14.080;2024-03-06T10:53:51;25.50;;;14.63;;
6840;SDS011;3458;53.678;14.080;2024-03-06T10:56:18;26.27;;;13.80;;
6840;SDS011;3458;53.678;14.080;2024-03-06T10:58:46;18.77;;;11.47;;
6840;SDS011;3458;53.678;14.080;2024-03-06T11:01:15;20.03;;;12.53;;
6840;SDS011;3458;53.678;14.080;2024-03-06T11:03:42;20.60;;;11.37;;
6840;SDS011;3458;53.678;14.080;2024-03-06T11:06:07;19.87;;;12.37;;
6840;SDS011;3458;53.678;14.080;2024-03-06T11:08:33;19.57;;;12.00;;
6840;SDS011;3458;53.678;14.080;2024-03-06T11:11:18;17.53;;;11.63;;
6840;SDS011;3458;53.678;14.080;2024-03-06T11:13:45;17.67;;;11.20;;
6840;SDS011;3458;53.678;14.080;2024-03-06T11:16:11;19.83;;;11.30;;
6840;SDS011;3458;53.678;14.080;2024-03-06T11:23:28;20.07;;;11.93;;
6840;SDS011;3458;53.678;14.080;2024-03-06T11:26:03;19.00;;;11.53;;
6840;SDS011;3458;53.678;14.080;2024-03-06T11:28:30;17.83;;;12.00;;
6840;SDS011;3458;53.678;14.080;2024-03-06T11:31:07;20.97;;;11.63;;
6840;SDS011;3458;53.678;14.080;2024-03-06T11:36:25;19.97;;;12.10;;
6840;SDS011;3458;53.678;14.080;2024-03-06T11:38:55;20.47;;;11.30;;
6840;SDS011;3458;53.678;14.080;2024-03-06T11:41:26;24.10;;;12.57;;
6840;SDS011;3458;53.678;14.080;2024-03-06T11:43:54;21.27;;;12.87;;
6840;SDS011;3458;53.678;14.080;2024-03-06T11:46:20;17.90;;;11.27;;
6840;SDS011;3458;53.678;14.080;2024-03-06T11:48:54;19.60;;;11.47;;
6840;SDS011;3458;53.678;14.080;2024-03-06T11:51:21;17.90;;;12.03;;
6840;SDS011;3458;53.678;14.080;2024-03-06T11:53:50;21.57;;;12.67;;
6840;SDS011;3458;53.678;14.080;2024-03-06T11:56:16;19.37;;;12.57;;
6840;SDS011;3458;53.678;14.080;2024-03-06T11:58:44;19.40;;;11.67;;
6840;SDS011;3458;53.678;14.080;2024-03-06T12:01:10;16.83;;;10.83;;
6840;SDS011;3458;53.678;14.080;2024-03-06T12:03:36;20.50;;;12.10;;
6840;SDS011;3458;53.678;14.080;2024-03-06T12:06:01;16.60;;;11.43;;
6840;SDS011;3458;53.678;14.080;2024-03-06T12:08:28;19.70;;;12.10;;
6840;SDS011;3458;53.678;14.080;2024-03-06T12:10:53;19.67;;;11.87;;
6840;SDS011;3458;53.678;14.080;2024-03-06T12:13:20;22.07;;;13.03;;
6840;SDS011;3458;53.678;14.080;2024-03-06T12:15:46;19.83;;;12.90;;
6840;SDS011;3458;53.678;14.080;2024-03-06T12:18:12;25.63;;;14.10;;
6840;SDS011;3458;53.678;14.080;2024-03-06T12:20:41;24.03;;;14.37;;
6840;SDS011;3458;53.678;14.080;2024-03-06T12:23:10;25.60;;;14.80;;
6840;SDS011;3458;53.678;14.080;2024-03-06T12:25:43;27.40;;;14.53;;
6840;SDS011;3458;53.678;14.080;2024-03-06T12:28:26;26.37;;;14.67;;
6840;SDS011;3458;53.678;14.080;2024-03-06T12:31:02;26.73;;;15.77;;
6840;SDS011;3458;53.678;14.080;2024-03-06T12:33:28;26.90;;;16.10;;
6840;SDS011;3458;53.678;14.080;2024-03-06T12:39:03;27.60;;;15.77;;
6840;SDS011;3458;53.678;14.080;2024-03-06T12:41:43;32.83;;;17.17;;
6840;SDS011;3458;53.678;14.080;2024-03-06T12:44:32;28.80;;;16.67;;
6840;SDS011;3458;53.678;14.080;2024-03-06T12:47:00;33.10;;;17.60;;
6840;SDS011;3458;53.678;14.080;2024-03-06T12:49:48;36.23;;;18.17;;
6840;SDS011;3458;53.678;14.080;2024-03-06T12:52:28;37.57;;;19.00;;
6840;SDS011;3458;53.678;14.080;2024-03-06T12:55:22;33.70;;;16.70;;
6840;SDS011;3458;53.678;14.080;2024-03-06T12:58:55;38.10;;;18.40;;
6840;SDS011;3458;53.678;14.080;2024-03-06T13:05:08;47.07;;;21.23;;
6840;SDS011;3458;53.678;14.080;2024-03-06T13:08:14;39.10;;;20.00;;
6840;SDS011;3458;53.678;14.080;2024-03-06T13:11:13;44.00;;;22.17;;
6840;SDS011;3458;53.678;14.080;2024-03-06T13:13:48;40.13;;;19.70;;
6840;SDS011;3458;53.678;14.080;2024-03-06T13:16:19;38.33;;;18.13;;
6840;SDS011;3458;53.678;14.080;2024-03-06T13:18:46;41.90;;;19.10;;
6840;SDS011;3458;53.678;14.080;2024-03-06T13:21:12;38.67;;;20.50;;
6840;SDS011;3458;53.678;14.080;2024-03-06T13:23:37;48.53;;;19.17;;
6840;SDS011;3458;53.678;14.080;2024-03-06T13:26:03;46.17;;;21.80;;
6840;SDS011;3458;53.678;14.080;2024-03-06T13:28:29;35.53;;;19.17;;
6840;SDS011;3458;53.678;14.080;2024-03-06T13:30:54;40.03;;;19.20;;
6840;SDS011;3458;53.678;14.080;2024-03-06T13:33:20;49.43;;;19.27;;
6840;SDS011;3458;53.678;14.080;2024-03-06T13:35:45;40.30;;;19.27;;
6840;SDS011;3458;53.678;14.080;2024-03-06T13:38:11;43.60;;;22.00;;
6840;SDS011;3458;53.678;14.080;2024-03-06T13:40:36;40.50;;;20.70;;
6840;SDS011;3458;53.678;14.080;2024-03-06T13:43:02;41.37;;;20.93;;
6840;SDS011;3458;53.678;14.080;2024-03-06T13:45:27;39.37;;;20.43;;
6840;SDS011;3458;53.678;14.080;2024-03-06T13:47:53;46.67;;;22.87;;
6840;SDS011;3458;53.678;14.080;2024-03-06T13:50:19;52.23;;;22.17;;
6840;SDS011;3458;53.678;14.080;2024-03-06T13:52:44;48.47;;;22.80;;
6840;SDS011;3458;53.678;14.080;2024-03-06T13:55:10;45.30;;;22.47;;
6840;SDS011;3458;53.678;14.080;2024-03-06T13:57:36;47.67;;;23.80;;
6840;SDS011;3458;53.678;14.080;2024-03-06T14:00:03;41.93;;;22.03;;
6840;SDS011;3458;53.678;14.080;2024-03-06T14:02:30;44.63;;;23.80;;
6840;SDS011;3458;53.678;14.080;2024-03-06T14:04:56;40.30;;;21.50;;
6840;SDS011;3458;53.678;14.080;2024-03-06T14:07:22;45.27;;;23.47;;
6840;SDS011;3458;53.678;14.080;2024-03-06T14:09:48;43.93;;;21.97;;
6840;SDS011;3458;53.678;14.080;2024-03-06T14:12:14;39.10;;;20.23;;
6840;SDS011;3458;53.678;14.080;2024-03-06T14:14:40;44.93;;;22.37;;
6840;SDS011;3458;53.678;14.080;2024-03-06T14:17:05;45.77;;;23.37;;
6840;SDS011;3458;53.678;14.080;2024-03-06T14:19:31;51.50;;;23.77;;
6840;SDS011;3458;53.678;14.080;2024-03-06T14:21:56;41.63;;;22.33;;
6840;SDS011;3458;53.678;14.080;2024-03-06T14:24:22;45.40;;;22.47;;
6840;SDS011;3458;53.678;14.080;2024-03-06T14:26:47;47.00;;;23.37;;
6840;SDS011;3458;53.678;14.080;2024-03-06T14:29:14;54.00;;;25.40;;
6840;SDS011;3458;53.678;14.080;2024-03-06T14:31:40;58.43;;;25.73;;
6840;SDS011;3458;53.678;14.080;2024-03-06T14:34:06;54.00;;;26.03;;
6840;SDS011;3458;53.678;14.080;2024-03-06T14:36:31;58.27;;;25.90;;
6840;SDS011;3458;53.678;14.080;2024-03-06T14:38:57;54.37;;;26.77;;
6840;SDS011;3458;53.678;14.080;2024-03-06T14:41:22;53.90;;;26.10;;
6840;SDS011;3458;53.678;14.080;2024-03-06T14:43:48;50.40;;;25.17;;
6840;SDS011;3458;53.678;14.080;2024-03-06T14:46:13;51.40;;;24.93;;
6840;SDS011;3458;53.678;14.080;2024-03-06T14:48:39;50.07;;;22.63;;
6840;SDS011;3458;53.678;14.080;2024-03-06T14:51:05;55.00;;;22.90;;
6840;SDS011;3458;53.678;14.080;2024-03-06T14:53:31;45.37;;;24.40;;
6840;SDS011;3458;53.678;14.080;2024-03-06T14:55:57;50.50;;;22.80;;
6840;SDS011;3458;53.678;14.080;2024-03-06T14:58:23;59.40;;;22.60;;